createdAt,value
2017-11-05T00:00:31.328Z,91.68
2017-11-05T00:02:59.597Z,91.70
2017-11-05T00:05:27.863Z,91.55
2017-11-05T00:07:56.152Z,91.27
2017-11-05T00:10:25.115Z,91.09
2017-11-05T00:12:53.796Z,91.22
2017-11-05T00:15:22.075Z,91.31
2017-11-05T00:17:50.331Z,91.39
2017-11-05T00:20:18.626Z,91.52
2017-11-05T00:22:47.343Z,91.56
2017-11-05T00:25:15.597Z,91.10
2017-11-05T00:27:43.867Z,91.63
2017-11-05T00:30:12.165Z,92.07
2017-11-05T00:32:40.416Z,91.94
2017-11-05T00:35:08.663Z,91.64
2017-11-05T00:37:37.010Z,91.50
2017-11-05T00:40:05.674Z,91.69
2017-11-05T00:42:33.932Z,92.25
2017-11-05T00:45:02.209Z,92.42
2017-11-05T00:47:31.224Z,92.39
2017-11-05T00:49:59.491Z,92.12
2017-11-05T00:52:28.213Z,92.27
2017-11-05T00:54:56.868Z,92.37
2017-11-05T00:57:25.590Z,92.46
2017-11-05T00:59:53.881Z,92.05
2017-11-05T01:02:22.143Z,92.28
2017-11-05T01:04:50.473Z,91.89
2017-11-05T01:07:19.809Z,92.17
2017-11-05T01:09:48.063Z,92.20
2017-11-05T01:12:16.334Z,92.38
2017-11-05T01:14:45.388Z,92.56
2017-11-05T01:17:13.648Z,92.58
2017-11-05T01:19:41.903Z,92.40
2017-11-05T01:22:10.606Z,92.48
2017-11-05T01:24:38.876Z,92.72
2017-11-05T01:27:07.140Z,92.71
2017-11-05T01:29:35.428Z,92.42
2017-11-05T01:32:03.696Z,92.43
2017-11-05T01:34:31.972Z,92.56
2017-11-05T01:37:00.681Z,92.70
2017-11-05T01:39:28.969Z,92.57
2017-11-05T01:41:57.245Z,92.56
2017-11-05T01:44:25.537Z,92.39
2017-11-05T01:46:53.800Z,92.40
2017-11-05T01:49:22.460Z,92.26
2017-11-05T01:51:50.745Z,92.72
2017-11-05T01:54:19.021Z,92.75
2017-11-05T01:56:47.296Z,92.76
2017-11-05T01:59:16.047Z,92.89
2017-11-05T02:01:44.303Z,93.28
2017-11-05T02:04:12.570Z,93.48
2017-11-05T02:06:40.849Z,93.47
2017-11-05T02:09:09.148Z,93.46
2017-11-05T02:11:37.414Z,93.44
2017-11-05T02:14:06.057Z,93.62
2017-11-05T02:16:34.332Z,93.85
2017-11-05T02:19:02.603Z,93.67
2017-11-05T02:21:30.896Z,93.47
2017-11-05T02:23:59.158Z,93.15
2017-11-05T02:26:27.855Z,92.94
2017-11-05T02:28:56.948Z,92.81
2017-11-05T02:31:25.212Z,92.62
2017-11-05T02:33:53.477Z,92.89
2017-11-05T02:36:23.022Z,93.10
2017-11-05T02:38:51.293Z,93.58
2017-11-05T02:41:19.556Z,93.39
2017-11-05T02:43:47.855Z,93.47
2017-11-05T02:46:16.111Z,93.64
2017-11-05T02:48:44.400Z,93.58
2017-11-05T02:51:12.667Z,93.68
2017-11-05T02:53:40.966Z,93.67
2017-11-05T02:56:09.245Z,93.52
2017-11-05T02:58:37.530Z,93.37
2017-11-05T03:01:07.721Z,93.56
2017-11-05T03:03:36.949Z,93.58
2017-11-05T03:06:05.259Z,93.24
2017-11-05T03:08:33.517Z,93.04
2017-11-05T03:11:01.826Z,93.44
2017-11-05T03:13:30.092Z,93.78
2017-11-05T03:15:59.909Z,93.71
2017-11-05T03:18:28.181Z,93.71
2017-11-05T03:20:56.456Z,93.62
2017-11-05T03:23:24.742Z,94.02
2017-11-05T03:25:53.020Z,93.83
2017-11-05T03:28:21.694Z,93.90
2017-11-05T03:30:49.963Z,93.93
2017-11-05T03:33:18.232Z,94.18
2017-11-05T03:35:46.503Z,94.13
2017-11-05T03:38:15.552Z,94.37
2017-11-05T03:40:44.609Z,94.45
2017-11-05T03:43:12.961Z,94.54
2017-11-05T03:45:41.251Z,94.24
2017-11-05T03:48:09.512Z,94.35
2017-11-05T03:50:37.792Z,94.34
2017-11-05T03:53:07.030Z,94.03
2017-11-05T03:55:35.677Z,93.77
2017-11-05T03:58:04.027Z,94.18
2017-11-05T04:00:32.292Z,94.20
2017-11-05T04:03:00.606Z,94.47
2017-11-05T04:05:29.173Z,94.63
2017-11-05T04:07:58.194Z,94.39
2017-11-05T04:10:26.461Z,94.49
2017-11-05T04:12:54.775Z,94.25
2017-11-05T04:15:23.041Z,94.59
2017-11-05T04:17:51.312Z,94.67
2017-11-05T04:20:19.600Z,94.93
2017-11-05T04:22:47.857Z,94.93
2017-11-05T04:25:16.181Z,94.68
2017-11-05T04:27:45.313Z,95.03
2017-11-05T04:30:14.345Z,94.81
2017-11-05T04:32:42.610Z,94.78
2017-11-05T04:35:10.888Z,94.83
2017-11-05T04:37:39.146Z,94.86
2017-11-05T04:40:08.884Z,94.93
2017-11-05T04:42:37.177Z,94.75
2017-11-05T04:45:05.435Z,94.39
2017-11-05T04:47:33.713Z,94.26
2017-11-05T04:50:02.029Z,94.15
2017-11-05T04:52:31.100Z,94.06
2017-11-05T04:54:59.362Z,94.52
2017-11-05T04:57:27.645Z,94.25
2017-11-05T04:59:55.916Z,94.09
2017-11-05T05:02:24.191Z,94.08
2017-11-05T05:04:52.789Z,93.70
2017-11-05T05:07:21.080Z,93.15
2017-11-05T05:09:49.375Z,93.29
2017-11-05T05:12:17.653Z,93.43
2017-11-05T05:14:45.918Z,93.81
2017-11-05T05:17:14.186Z,93.77
2017-11-05T05:19:42.525Z,93.96
2017-11-05T05:22:11.544Z,94.15
2017-11-05T05:24:39.788Z,93.82
2017-11-05T05:27:08.827Z,93.54
2017-11-05T05:29:37.075Z,93.60
2017-11-05T05:32:06.103Z,93.62
2017-11-05T05:34:34.364Z,92.78
2017-11-05T05:37:02.622Z,92.07
2017-11-05T05:39:31.653Z,92.42
2017-11-05T05:41:59.933Z,91.27
2017-11-05T05:44:28.192Z,90.90
2017-11-05T05:46:56.451Z,90.89
2017-11-05T05:49:24.726Z,90.28
2017-11-05T05:51:53.747Z,90.06
2017-11-05T05:54:22.004Z,90.33
2017-11-05T05:56:50.281Z,91.11
2017-11-05T05:59:18.550Z,92.01
2017-11-05T06:01:47.569Z,91.98
2017-11-05T06:04:15.849Z,92.16
2017-11-05T06:06:44.095Z,92.35
2017-11-05T06:09:13.124Z,92.59
2017-11-05T06:11:41.541Z,92.76
2017-11-05T06:14:09.791Z,93.10
2017-11-05T06:16:38.069Z,92.51
2017-11-05T06:19:06.348Z,92.13
2017-11-05T06:21:34.592Z,92.17
2017-11-05T06:24:02.868Z,91.97
2017-11-05T06:26:31.901Z,92.61
2017-11-05T06:29:00.159Z,92.80
2017-11-05T06:31:28.432Z,93.02
2017-11-05T06:33:56.691Z,93.08
2017-11-05T06:36:25.718Z,93.17
2017-11-05T06:38:54.027Z,91.61
2017-11-05T06:41:22.403Z,91.59
2017-11-05T06:43:50.666Z,91.27
2017-11-05T06:46:18.920Z,91.41
2017-11-05T06:48:47.204Z,90.87
2017-11-05T06:51:15.457Z,91.39
2017-11-05T06:53:44.505Z,91.46
2017-11-05T06:56:12.823Z,91.92
2017-11-05T06:58:41.885Z,90.25
2017-11-05T07:01:10.292Z,90.42
2017-11-05T07:03:39.480Z,89.77
2017-11-05T07:06:08.074Z,87.49
2017-11-05T07:08:37.270Z,87.45
2017-11-05T07:11:07.039Z,87.49
2017-11-05T07:13:35.742Z,87.56
2017-11-05T07:16:05.202Z,88.78
2017-11-05T07:18:35.801Z,86.88
2017-11-05T07:21:04.870Z,88.48
2017-11-05T07:23:33.859Z,87.29
2017-11-05T07:26:04.266Z,88.04
2017-11-05T07:28:34.670Z,86.85
2017-11-05T07:31:03.294Z,88.40
2017-11-05T07:33:31.844Z,87.89
2017-11-05T07:36:01.235Z,87.86
2017-11-05T07:38:31.137Z,88.26
2017-11-05T07:41:00.004Z,88.32
2017-11-05T07:43:28.961Z,88.42
2017-11-05T07:45:58.249Z,87.22
2017-11-05T07:48:27.688Z,88.58
2017-11-05T07:50:56.900Z,88.85
2017-11-05T07:53:26.099Z,88.01
2017-11-05T07:55:56.694Z,89.43
2017-11-05T07:58:27.221Z,89.15
2017-11-05T08:00:57.115Z,89.80
2017-11-05T08:03:27.670Z,90.24
2017-11-05T08:05:55.927Z,90.51
2017-11-05T08:08:24.951Z,90.61
2017-11-05T08:10:53.227Z,90.52
2017-11-05T08:13:21.489Z,91.33
2017-11-05T08:15:50.522Z,90.72
2017-11-05T08:18:18.813Z,90.12
2017-11-05T08:20:47.077Z,90.41
2017-11-05T08:23:15.334Z,89.28
2017-11-05T08:25:43.852Z,88.57
2017-11-05T08:28:12.123Z,90.35
2017-11-05T08:30:40.410Z,90.52
2017-11-05T08:33:08.693Z,88.21
2017-11-05T08:35:36.952Z,86.94
2017-11-05T08:38:05.190Z,87.63
2017-11-05T08:40:34.242Z,86.74
2017-11-05T08:43:03.304Z,86.27
2017-11-05T08:45:31.555Z,87.75
2017-11-05T08:48:00.593Z,87.76
2017-11-05T08:50:28.834Z,86.66
2017-11-05T08:52:57.086Z,87.80
2017-11-05T08:55:25.370Z,88.96
2017-11-05T08:57:54.398Z,86.71
2017-11-05T09:00:22.648Z,86.72
2017-11-05T09:02:51.689Z,84.77
2017-11-05T09:05:19.982Z,86.60
2017-11-05T09:07:48.843Z,86.11
2017-11-05T09:10:17.139Z,85.72
2017-11-05T09:12:45.410Z,86.60
2017-11-05T09:15:13.692Z,86.75
2017-11-05T09:17:42.230Z,85.62
2017-11-05T09:20:11.257Z,86.63
2017-11-05T09:22:39.503Z,85.55
2017-11-05T09:25:08.809Z,84.01
2017-11-05T09:27:37.897Z,84.18
2017-11-05T09:30:06.953Z,84.82
2017-11-05T09:32:35.260Z,84.83
2017-11-05T09:35:03.556Z,84.13
2017-11-05T09:37:33.506Z,86.64
2017-11-05T09:40:01.792Z,88.31
2017-11-05T09:42:30.055Z,87.68
2017-11-05T09:44:58.313Z,88.13
2017-11-05T09:47:27.368Z,88.27
2017-11-05T09:49:55.623Z,88.32
2017-11-05T09:52:23.888Z,85.68
2017-11-05T09:54:52.219Z,87.27
2017-11-05T09:57:20.651Z,83.11
2017-11-05T09:59:48.926Z,84.11
2017-11-05T10:02:17.210Z,85.00
2017-11-05T10:04:45.469Z,84.46
2017-11-05T10:07:13.747Z,85.74
2017-11-05T10:09:42.051Z,84.60
2017-11-05T10:12:10.318Z,85.85
2017-11-05T10:14:38.806Z,82.82
2017-11-05T10:17:07.108Z,83.48
2017-11-05T10:19:35.379Z,82.52
2017-11-05T10:22:03.627Z,83.58
2017-11-05T10:24:31.904Z,85.50
2017-11-05T10:27:00.201Z,84.45
2017-11-05T10:29:28.479Z,83.52
2017-11-05T10:31:57.011Z,82.80
2017-11-05T10:34:26.043Z,84.71
2017-11-05T10:36:54.318Z,80.33
2017-11-05T10:39:22.872Z,80.40
2017-11-05T10:41:51.937Z,81.10
2017-11-05T10:44:20.183Z,82.28
2017-11-05T10:46:48.464Z,81.95
2017-11-05T10:49:16.726Z,82.73
2017-11-05T10:51:44.998Z,82.54
2017-11-05T10:54:13.265Z,79.65
2017-11-05T10:56:41.532Z,79.53
2017-11-05T10:59:10.571Z,80.31
2017-11-05T11:01:38.834Z,79.73
2017-11-05T11:04:07.099Z,81.08
2017-11-05T11:06:35.377Z,80.86
2017-11-05T11:09:03.658Z,79.92
2017-11-05T11:11:31.925Z,80.24
2017-11-05T11:14:00.204Z,79.52
2017-11-05T11:16:28.453Z,80.85
2017-11-05T11:18:56.765Z,79.98
2017-11-05T11:21:25.037Z,79.60
2017-11-05T11:23:54.055Z,79.97
2017-11-05T11:26:22.324Z,78.84
2017-11-05T11:28:50.608Z,78.60
2017-11-05T11:31:18.873Z,78.78
2017-11-05T11:33:47.162Z,81.81
2017-11-05T11:36:15.411Z,78.90
2017-11-05T11:38:44.433Z,78.19
2017-11-05T11:41:12.714Z,78.29
2017-11-05T11:43:40.981Z,77.96
2017-11-05T11:46:09.227Z,78.78
2017-11-05T11:48:38.274Z,79.18
2017-11-05T11:51:06.546Z,78.99
2017-11-05T11:53:34.825Z,77.20
2017-11-05T11:56:03.099Z,78.28
2017-11-05T11:58:31.410Z,77.36
2017-11-05T12:00:59.680Z,79.50
2017-11-05T12:03:27.976Z,78.49
2017-11-05T12:05:56.230Z,77.27
2017-11-05T12:08:25.022Z,79.65
2017-11-05T12:10:53.290Z,76.69
2017-11-05T12:13:21.571Z,77.59
2017-11-05T12:15:49.845Z,76.22
2017-11-05T12:18:18.114Z,78.28
2017-11-05T12:20:46.403Z,78.02
2017-11-05T12:23:14.660Z,78.45
2017-11-05T12:25:42.915Z,76.73
2017-11-05T12:28:11.969Z,77.58
2017-11-05T12:30:40.226Z,76.15
2017-11-05T12:33:08.523Z,75.71
2017-11-05T12:35:36.839Z,75.45
2017-11-05T12:38:05.873Z,76.37
2017-11-05T12:40:34.151Z,76.67
2017-11-05T12:43:02.802Z,73.34
2017-11-05T12:45:31.819Z,73.32
2017-11-05T12:48:00.098Z,73.49
2017-11-05T12:50:28.447Z,74.72
2017-11-05T12:52:57.483Z,75.48
2017-11-05T12:55:25.758Z,72.74
2017-11-05T12:57:54.025Z,73.37
2017-11-05T13:00:22.294Z,73.52
2017-11-05T13:02:50.584Z,74.78
2017-11-05T13:05:18.859Z,73.13
2017-11-05T13:07:47.122Z,71.56
2017-11-05T13:10:15.410Z,72.77
2017-11-05T13:12:45.691Z,72.37
2017-11-05T13:15:14.146Z,72.96
2017-11-05T13:17:42.571Z,73.13
2017-11-05T13:20:11.838Z,74.40
2017-11-05T13:22:42.130Z,74.85
2017-11-05T13:25:10.417Z,73.32
2017-11-05T13:27:38.793Z,73.66
2017-11-05T13:30:11.206Z,72.14
2017-11-05T13:32:39.583Z,72.22
2017-11-05T13:35:07.928Z,73.05
2017-11-05T13:37:36.439Z,73.18
2017-11-05T13:40:06.852Z,73.35
2017-11-05T13:42:35.273Z,75.00
2017-11-05T13:45:04.548Z,73.22
2017-11-05T13:47:32.906Z,74.10
2017-11-05T13:50:01.296Z,73.64
2017-11-05T13:52:29.688Z,75.45
2017-11-05T13:55:01.430Z,73.97
2017-11-05T13:57:29.819Z,74.75
2017-11-05T13:59:58.186Z,73.89
2017-11-05T14:02:32.390Z,74.26
2017-11-05T14:05:00.786Z,74.14
2017-11-05T14:07:29.169Z,73.98
2017-11-05T14:10:01.550Z,72.68
2017-11-05T14:12:29.986Z,72.45
2017-11-05T14:14:59.248Z,72.36
2017-11-05T14:17:32.220Z,72.32
2017-11-05T14:20:02.466Z,73.10
2017-11-05T14:22:30.805Z,72.37
2017-11-05T14:24:59.208Z,70.70
2017-11-05T14:27:30.675Z,71.19
2017-11-05T14:29:58.944Z,72.29
2017-11-05T14:32:27.238Z,72.03
2017-11-05T14:34:55.497Z,71.64
2017-11-05T14:37:23.756Z,72.82
2017-11-05T14:39:52.054Z,73.94
2017-11-05T14:42:20.318Z,73.79
2017-11-05T14:44:48.614Z,74.36
2017-11-05T14:47:16.953Z,72.62
2017-11-05T14:49:45.969Z,73.49
2017-11-05T14:52:14.246Z,75.99
2017-11-05T14:54:42.522Z,75.59
2017-11-05T14:57:10.796Z,75.98
2017-11-05T14:59:39.382Z,76.49
2017-11-05T15:02:07.653Z,75.68
2017-11-05T15:04:35.916Z,73.40
2017-11-05T15:07:04.193Z,75.72
2017-11-05T15:09:32.478Z,76.82
2017-11-05T15:12:00.764Z,76.89
2017-11-05T15:14:29.034Z,77.08
2017-11-05T15:16:57.295Z,78.52
2017-11-05T15:19:25.589Z,76.98
2017-11-05T15:21:53.838Z,78.72
2017-11-05T15:24:22.876Z,79.37
2017-11-05T15:26:51.154Z,79.62
2017-11-05T15:29:19.416Z,80.40
2017-11-05T15:31:47.692Z,80.95
2017-11-05T15:34:15.944Z,81.74
2017-11-05T15:36:45.035Z,81.99
2017-11-05T15:39:14.082Z,82.45
2017-11-05T15:41:42.343Z,81.61
2017-11-05T15:44:10.606Z,81.80
2017-11-05T15:46:39.218Z,82.61
2017-11-05T15:49:07.489Z,83.25
2017-11-05T15:51:35.750Z,83.06
2017-11-05T15:54:04.038Z,83.34
2017-11-05T15:56:32.356Z,83.72
2017-11-05T15:59:00.950Z,83.85
2017-11-05T16:01:29.206Z,83.62
2017-11-05T16:03:57.455Z,82.92
2017-11-05T16:06:25.743Z,83.91
2017-11-05T16:08:54.033Z,84.60
2017-11-05T16:11:22.320Z,84.65
2017-11-05T16:13:50.666Z,84.39
2017-11-05T16:16:18.930Z,85.38
2017-11-05T16:18:47.227Z,84.84
2017-11-05T16:21:15.495Z,85.08
2017-11-05T16:23:43.753Z,85.27
2017-11-05T16:26:12.881Z,84.29
2017-11-05T16:28:41.142Z,85.01
2017-11-05T16:31:09.441Z,85.49
2017-11-05T16:33:37.725Z,85.68
2017-11-05T16:36:05.994Z,86.09
2017-11-05T16:38:34.274Z,85.59
2017-11-05T16:41:02.617Z,84.08
2017-11-05T16:43:31.644Z,83.87
2017-11-05T16:45:59.910Z,83.32
2017-11-05T16:48:28.194Z,84.28
2017-11-05T16:50:56.448Z,85.00
2017-11-05T16:53:25.491Z,84.81
2017-11-05T16:55:53.769Z,84.39
2017-11-05T16:58:22.036Z,85.08
2017-11-05T17:00:50.303Z,85.12
2017-11-05T17:03:18.584Z,85.23
2017-11-05T17:05:46.859Z,84.00
2017-11-05T17:08:15.115Z,82.34
2017-11-05T17:10:43.405Z,82.29
2017-11-05T17:13:11.675Z,78.51
2017-11-05T17:15:39.947Z,78.05
2017-11-05T17:18:08.276Z,79.66
2017-11-05T17:20:36.539Z,82.03
2017-11-05T17:23:04.814Z,84.20
2017-11-05T17:25:33.094Z,83.56
2017-11-05T17:28:01.361Z,83.94
2017-11-05T17:30:29.624Z,85.76
2017-11-05T17:32:57.922Z,86.39
2017-11-05T17:35:26.186Z,87.43
2017-11-05T17:37:54.433Z,88.06
2017-11-05T17:40:23.468Z,88.59
2017-11-05T17:42:51.796Z,88.80
2017-11-05T17:45:20.088Z,89.47
2017-11-05T17:47:49.140Z,89.84
2017-11-05T17:50:17.398Z,90.28
2017-11-05T17:52:45.673Z,90.40
2017-11-05T17:55:13.953Z,89.95
2017-11-05T17:57:42.232Z,89.90
2017-11-05T18:00:10.517Z,89.53
2017-11-05T18:02:38.796Z,89.49
2017-11-05T18:05:07.097Z,89.78
2017-11-05T18:07:35.396Z,89.28
2017-11-05T18:10:04.436Z,89.25
2017-11-05T18:12:32.703Z,90.24
2017-11-05T18:15:00.985Z,90.87
2017-11-05T18:17:29.237Z,90.49
2017-11-05T18:19:58.290Z,90.71
2017-11-05T18:22:26.578Z,90.85
2017-11-05T18:24:54.853Z,90.80
2017-11-05T18:27:23.135Z,90.17
2017-11-05T18:29:51.437Z,89.91
2017-11-05T18:32:20.489Z,90.06
2017-11-05T18:34:48.816Z,89.84
2017-11-05T18:37:17.842Z,90.52
2017-11-05T18:39:46.978Z,90.59
2017-11-05T18:42:15.290Z,90.82
2017-11-05T18:44:44.333Z,90.88
2017-11-05T18:47:12.657Z,91.09
2017-11-05T18:49:41.719Z,91.01
2017-11-05T18:52:10.005Z,90.64
2017-11-05T18:54:38.310Z,90.62
2017-11-05T18:57:07.350Z,90.47
2017-11-05T18:59:35.622Z,90.49
2017-11-05T19:02:03.880Z,90.49
2017-11-05T19:04:32.176Z,90.48
2017-11-05T19:07:00.451Z,88.59
2017-11-05T19:09:28.722Z,87.51
2017-11-05T19:11:57.016Z,85.79
2017-11-05T19:14:26.286Z,85.91
2017-11-05T19:16:54.633Z,86.54
2017-11-05T19:19:23.705Z,86.51
2017-11-05T19:21:51.980Z,88.16
2017-11-05T19:24:20.527Z,88.96
2017-11-05T19:26:50.641Z,88.27
2017-11-05T19:29:19.687Z,88.75
2017-11-05T19:31:47.971Z,89.25
2017-11-05T19:34:16.242Z,89.21
2017-11-05T19:36:44.798Z,89.81
2017-11-05T19:39:13.056Z,90.04
2017-11-05T19:41:41.316Z,89.97
2017-11-05T19:44:10.729Z,89.06
2017-11-05T19:46:41.919Z,89.31
2017-11-05T19:49:10.487Z,89.52
2017-11-05T19:51:39.477Z,89.00
2017-11-05T19:54:07.748Z,88.45
2017-11-05T19:56:36.877Z,88.50
2017-11-05T19:59:05.158Z,88.98
2017-11-05T20:01:33.442Z,88.95
2017-11-05T20:04:02.008Z,89.38
2017-11-05T20:06:30.275Z,89.98
2017-11-05T20:08:58.566Z,89.81
2017-11-05T20:11:26.873Z,87.79
2017-11-05T20:13:55.172Z,89.35
2017-11-05T20:16:24.206Z,89.06
2017-11-05T20:18:52.615Z,88.98
2017-11-05T20:21:20.885Z,88.67
2017-11-05T20:23:49.185Z,89.72
2017-11-05T20:26:17.492Z,89.20
2017-11-05T20:28:46.524Z,89.70
2017-11-05T20:31:14.904Z,90.32
2017-11-05T20:33:43.165Z,89.70
2017-11-05T20:36:11.439Z,89.87
2017-11-05T20:38:39.723Z,88.76
2017-11-05T20:41:07.976Z,88.15
2017-11-05T20:43:37.018Z,88.59
2017-11-05T20:46:05.310Z,89.03
2017-11-05T20:48:33.585Z,89.80
2017-11-05T20:51:01.879Z,89.91
2017-11-05T20:53:30.152Z,89.33
2017-11-05T20:55:58.418Z,89.55
2017-11-05T20:58:26.696Z,89.58
2017-11-05T21:00:54.974Z,89.51
2017-11-05T21:03:23.255Z,89.12
2017-11-05T21:05:51.537Z,89.29
2017-11-05T21:08:27.459Z,88.93
2017-11-05T21:10:55.761Z,87.99
2017-11-05T21:13:24.816Z,89.36
2017-11-05T21:15:53.119Z,88.78
2017-11-05T21:18:21.415Z,89.82
2017-11-05T21:20:49.695Z,89.66
2017-11-05T21:23:17.981Z,89.23
2017-11-05T21:25:46.261Z,89.18
2017-11-05T21:28:15.301Z,88.92
2017-11-05T21:30:43.599Z,88.49
2017-11-05T21:33:11.863Z,88.86
2017-11-05T21:35:40.150Z,89.25
2017-11-05T21:38:08.430Z,89.93
2017-11-05T21:40:36.693Z,89.15
2017-11-05T21:43:04.975Z,89.77
2017-11-05T21:45:33.247Z,90.47
2017-11-05T21:48:01.498Z,90.96
2017-11-05T21:50:29.785Z,89.86
2017-11-05T21:52:58.831Z,90.26
2017-11-05T21:55:27.117Z,89.76
2017-11-05T21:57:55.391Z,89.75
2017-11-05T22:00:23.663Z,89.80
2017-11-05T22:02:51.967Z,89.95
2017-11-05T22:05:20.236Z,90.01
2017-11-05T22:07:48.521Z,90.07
2017-11-05T22:10:16.801Z,89.98
2017-11-05T22:12:45.146Z,90.14
2017-11-05T22:15:13.456Z,90.12
2017-11-05T22:17:41.734Z,90.12
2017-11-05T22:20:09.999Z,89.89
2017-11-05T22:22:38.321Z,89.55
2017-11-05T22:25:07.379Z,89.55
2017-11-05T22:27:39.448Z,89.23
2017-11-05T22:30:07.708Z,89.09
2017-11-05T22:32:36.051Z,89.11
2017-11-05T22:35:05.196Z,89.75
2017-11-05T22:37:33.454Z,90.41
2017-11-05T22:40:01.732Z,89.40
2017-11-05T22:42:30.013Z,90.15
2017-11-05T22:44:58.281Z,90.32
2017-11-05T22:47:26.564Z,90.23
2017-11-05T22:49:54.835Z,89.80
2017-11-05T22:52:23.130Z,89.77
2017-11-05T22:54:51.417Z,90.43
2017-11-05T22:57:19.677Z,90.57
2017-11-05T22:59:47.953Z,89.65
2017-11-05T23:02:16.234Z,90.19
2017-11-05T23:04:44.484Z,90.25
2017-11-05T23:07:12.751Z,90.36
2017-11-05T23:09:41.796Z,90.22
2017-11-05T23:12:10.112Z,89.79
2017-11-05T23:14:38.469Z,90.19
2017-11-05T23:17:06.735Z,90.91
2017-11-05T23:19:35.011Z,90.57
2017-11-05T23:22:03.274Z,89.85
2017-11-05T23:24:31.545Z,90.13
2017-11-05T23:26:59.841Z,90.07
2017-11-05T23:29:28.111Z,89.83
2017-11-05T23:31:56.389Z,89.46
2017-11-05T23:34:24.658Z,89.63
2017-11-05T23:36:52.926Z,89.95
2017-11-05T23:39:21.259Z,89.98
2017-11-05T23:41:49.524Z,89.50
2017-11-05T23:44:18.020Z,89.71
2017-11-05T23:46:46.518Z,90.35
2017-11-05T23:49:15.548Z,90.13
2017-11-05T23:51:43.830Z,90.17
2017-11-05T23:54:12.103Z,89.65
2017-11-05T23:56:40.487Z,90.25
2017-11-05T23:59:08.760Z,90.31
